sensor_id;sensor_type;location;lat;lon;timestamp;P1;durP1;ratioP1;P2;durP2;ratioP2
74227;SDS011;62587;52.352;5.006;2023-03-23T00:00:22;4.93;;;3.33;;
74227;SDS011;62587;52.352;5.006;2023-03-23T00:02:47;3.87;;;2.97;;
74227;SDS011;62587;52.352;5.006;2023-03-23T00:05:13;5.18;;;3.40;;
74227;SDS011;62587;52.352;5.006;2023-03-23T00:07:38;6.10;;;2.85;;
74227;SDS011;62587;52.352;5.006;2023-03-23T00:10:10;4.03;;;3.25;;
74227;SDS011;62587;52.352;5.006;2023-03-23T00:12:35;6.97;;;3.42;;
74227;SDS011;62587;52.352;5.006;2023-03-23T00:15:04;5.85;;;3.10;;
74227;SDS011;62587;52.352;5.006;2023-03-23T00:17:32;6.05;;;3.30;;
74227;SDS011;62587;52.352;5.006;2023-03-23T00:19:58;5.00;;;2.92;;
74227;SDS011;62587;52.352;5.006;2023-03-23T00:22:26;4.90;;;3.00;;
74227;SDS011;62587;52.352;5.006;2023-03-23T00:24:52;6.82;;;3.63;;
74227;SDS011;62587;52.352;5.006;2023-03-23T00:27:18;6.28;;;3.63;;
74227;SDS011;62587;52.352;5.006;2023-03-23T00:29:43;4.65;;;2.70;;
74227;SDS011;62587;52.352;5.006;2023-03-23T00:32:10;5.97;;;3.05;;
74227;SDS011;62587;52.352;5.006;2023-03-23T00:34:41;5.47;;;2.83;;
74227;SDS011;62587;52.352;5.006;2023-03-23T00:37:09;3.90;;;2.58;;
74227;SDS011;62587;52.352;5.006;2023-03-23T00:39:35;3.83;;;2.95;;
74227;SDS011;62587;52.352;5.006;2023-03-23T00:42:02;3.60;;;2.60;;
74227;SDS011;62587;52.352;5.006;2023-03-23T00:44:28;5.30;;;3.17;;
74227;SDS011;62587;52.352;5.006;2023-03-23T00:49:22;4.33;;;2.50;;
74227;SDS011;62587;52.352;5.006;2023-03-23T00:51:50;4.30;;;2.75;;
74227;SDS011;62587;52.352;5.006;2023-03-23T00:54:15;4.40;;;2.42;;
74227;SDS011;62587;52.352;5.006;2023-03-23T00:56:41;3.80;;;2.83;;
74227;SDS011;62587;52.352;5.006;2023-03-23T00:59:06;3.80;;;2.50;;
74227;SDS011;62587;52.352;5.006;2023-03-23T01:01:32;4.57;;;2.28;;
74227;SDS011;62587;52.352;5.006;2023-03-23T01:03:58;5.10;;;2.70;;
74227;SDS011;62587;52.352;5.006;2023-03-23T01:06:29;3.35;;;2.47;;
74227;SDS011;62587;52.352;5.006;2023-03-23T01:08:56;3.60;;;2.42;;
74227;SDS011;62587;52.352;5.006;2023-03-23T01:11:23;4.70;;;1.98;;
74227;SDS011;62587;52.352;5.006;2023-03-23T01:13:49;3.28;;;1.92;;
74227;SDS011;62587;52.352;5.006;2023-03-23T01:16:15;2.47;;;1.73;;
74227;SDS011;62587;52.352;5.006;2023-03-23T01:18:40;3.50;;;2.35;;
74227;SDS011;62587;52.352;5.006;2023-03-23T01:21:10;3.58;;;2.13;;
74227;SDS011;62587;52.352;5.006;2023-03-23T01:23:38;4.35;;;2.00;;
74227;SDS011;62587;52.352;5.006;2023-03-23T01:26:05;4.38;;;2.17;;
74227;SDS011;62587;52.352;5.006;2023-03-23T01:28:34;4.60;;;2.47;;
74227;SDS011;62587;52.352;5.006;2023-03-23T01:31:01;4.30;;;1.98;;
74227;SDS011;62587;52.352;5.006;2023-03-23T01:33:34;3.00;;;1.92;;
74227;SDS011;62587;52.352;5.006;2023-03-23T01:36:04;3.65;;;1.70;;
74227;SDS011;62587;52.352;5.006;2023-03-23T01:38:33;2.95;;;1.52;;
74227;SDS011;62587;52.352;5.006;2023-03-23T01:40:59;3.30;;;1.90;;
74227;SDS011;62587;52.352;5.006;2023-03-23T01:43:25;2.47;;;1.70;;
74227;SDS011;62587;52.352;5.006;2023-03-23T01:45:51;3.45;;;1.90;;
74227;SDS011;62587;52.352;5.006;2023-03-23T01:51:02;3.17;;;1.80;;
74227;SDS011;62587;52.352;5.006;2023-03-23T01:53:30;2.85;;;2.30;;
74227;SDS011;62587;52.352;5.006;2023-03-23T01:56:01;4.22;;;1.85;;
74227;SDS011;62587;52.352;5.006;2023-03-23T01:58:28;2.40;;;1.70;;
74227;SDS011;62587;52.352;5.006;2023-03-23T02:00:57;4.25;;;2.00;;
74227;SDS011;62587;52.352;5.006;2023-03-23T02:03:27;2.58;;;1.73;;
74227;SDS011;62587;52.352;5.006;2023-03-23T02:05:54;3.65;;;1.98;;
74227;SDS011;62587;52.352;5.006;2023-03-23T02:08:23;2.75;;;1.70;;
74227;SDS011;62587;52.352;5.006;2023-03-23T02:10:51;3.63;;;1.70;;
74227;SDS011;62587;52.352;5.006;2023-03-23T02:13:17;3.17;;;1.77;;
74227;SDS011;62587;52.352;5.006;2023-03-23T02:15:52;3.78;;;2.15;;
74227;SDS011;62587;52.352;5.006;2023-03-23T02:26:52;3.17;;;1.60;;
74227;SDS011;62587;52.352;5.006;2023-03-23T02:32:21;2.97;;;2.13;;
74227;SDS011;62587;52.352;5.006;2023-03-23T02:38:10;2.63;;;1.38;;
74227;SDS011;62587;52.352;5.006;2023-03-23T02:40:48;3.20;;;1.40;;
74227;SDS011;62587;52.352;5.006;2023-03-23T02:43:18;2.72;;;1.35;;
74227;SDS011;62587;52.352;5.006;2023-03-23T02:45:47;2.05;;;1.40;;
74227;SDS011;62587;52.352;5.006;2023-03-23T02:48:15;2.40;;;1.40;;
74227;SDS011;62587;52.352;5.006;2023-03-23T02:50:44;1.70;;;1.40;;
74227;SDS011;62587;52.352;5.006;2023-03-23T02:53:13;1.85;;;1.35;;
74227;SDS011;62587;52.352;5.006;2023-03-23T02:55:42;2.78;;;1.80;;
74227;SDS011;62587;52.352;5.006;2023-03-23T02:58:09;2.53;;;1.58;;
74227;SDS011;62587;52.352;5.006;2023-03-23T03:00:36;2.60;;;1.55;;
74227;SDS011;62587;52.352;5.006;2023-03-23T03:03:01;2.88;;;1.58;;
74227;SDS011;62587;52.352;5.006;2023-03-23T03:05:38;2.33;;;1.50;;
74227;SDS011;62587;52.352;5.006;2023-03-23T03:18:57;2.60;;;1.30;;
74227;SDS011;62587;52.352;5.006;2023-03-23T03:21:28;2.83;;;1.40;;
74227;SDS011;62587;52.352;5.006;2023-03-23T03:23:56;2.53;;;1.40;;
74227;SDS011;62587;52.352;5.006;2023-03-23T03:26:26;2.85;;;1.73;;
74227;SDS011;62587;52.352;5.006;2023-03-23T03:28:52;3.55;;;1.60;;
74227;SDS011;62587;52.352;5.006;2023-03-23T03:31:21;2.35;;;1.00;;
74227;SDS011;62587;52.352;5.006;2023-03-23T03:33:49;3.67;;;1.38;;
74227;SDS011;62587;52.352;5.006;2023-03-23T03:36:20;2.35;;;1.30;;
74227;SDS011;62587;52.352;5.006;2023-03-23T03:38:48;2.95;;;1.40;;
74227;SDS011;62587;52.352;5.006;2023-03-23T03:41:16;1.77;;;1.00;;
74227;SDS011;62587;52.352;5.006;2023-03-23T03:43:42;3.45;;;1.40;;
74227;SDS011;62587;52.352;5.006;2023-03-23T03:46:07;2.65;;;1.40;;
74227;SDS011;62587;52.352;5.006;2023-03-23T03:48:33;2.90;;;1.60;;
74227;SDS011;62587;52.352;5.006;2023-03-23T03:50:59;3.15;;;1.35;;
74227;SDS011;62587;52.352;5.006;2023-03-23T03:53:25;3.17;;;1.50;;
74227;SDS011;62587;52.352;5.006;2023-03-23T03:55:51;2.42;;;1.45;;
74227;SDS011;62587;52.352;5.006;2023-03-23T04:03:13;2.05;;;1.20;;
74227;SDS011;62587;52.352;5.006;2023-03-23T04:05:38;3.85;;;1.25;;
74227;SDS011;62587;52.352;5.006;2023-03-23T04:08:04;3.22;;;1.23;;
74227;SDS011;62587;52.352;5.006;2023-03-23T04:10:30;3.50;;;1.55;;
74227;SDS011;62587;52.352;5.006;2023-03-23T04:12:56;4.63;;;1.40;;
74227;SDS011;62587;52.352;5.006;2023-03-23T04:15:22;4.22;;;1.45;;
74227;SDS011;62587;52.352;5.006;2023-03-23T04:17:47;4.47;;;1.42;;
74227;SDS011;62587;52.352;5.006;2023-03-23T04:20:13;2.78;;;1.20;;
74227;SDS011;62587;52.352;5.006;2023-03-23T04:22:45;2.50;;;1.00;;
74227;SDS011;62587;52.352;5.006;2023-03-23T04:25:14;2.55;;;1.50;;
74227;SDS011;62587;52.352;5.006;2023-03-23T04:27:41;3.28;;;1.50;;
74227;SDS011;62587;52.352;5.006;2023-03-23T04:30:11;3.00;;;1.20;;
74227;SDS011;62587;52.352;5.006;2023-03-23T04:32:38;4.50;;;1.30;;
74227;SDS011;62587;52.352;5.006;2023-03-23T04:35:08;4.10;;;1.27;;
74227;SDS011;62587;52.352;5.006;2023-03-23T04:37:39;3.03;;;1.55;;
74227;SDS011;62587;52.352;5.006;2023-03-23T04:40:06;3.33;;;1.30;;
74227;SDS011;62587;52.352;5.006;2023-03-23T04:42:36;2.67;;;1.38;;
74227;SDS011;62587;52.352;5.006;2023-03-23T04:45:03;3.70;;;1.70;;
74227;SDS011;62587;52.352;5.006;2023-03-23T04:47:31;4.38;;;1.50;;
74227;SDS011;62587;52.352;5.006;2023-03-23T04:50:04;2.78;;;1.55;;
74227;SDS011;62587;52.352;5.006;2023-03-23T04:52:31;1.77;;;1.00;;
74227;SDS011;62587;52.352;5.006;2023-03-23T04:54:57;2.05;;;1.33;;
74227;SDS011;62587;52.352;5.006;2023-03-23T04:57:22;2.92;;;1.17;;
74227;SDS011;62587;52.352;5.006;2023-03-23T04:59:48;2.95;;;1.23;;
74227;SDS011;62587;52.352;5.006;2023-03-23T05:02:14;4.53;;;1.10;;
74227;SDS011;62587;52.352;5.006;2023-03-23T05:04:42;3.40;;;1.40;;
74227;SDS011;62587;52.352;5.006;2023-03-23T05:07:07;2.47;;;1.20;;
74227;SDS011;62587;52.352;5.006;2023-03-23T05:09:33;3.22;;;1.80;;
74227;SDS011;62587;52.352;5.006;2023-03-23T05:12:03;2.92;;;1.10;;
74227;SDS011;62587;52.352;5.006;2023-03-23T05:14:32;2.65;;;1.25;;
74227;SDS011;62587;52.352;5.006;2023-03-23T05:16:58;3.47;;;1.30;;
74227;SDS011;62587;52.352;5.006;2023-03-23T05:19:23;2.58;;;1.23;;
74227;SDS011;62587;52.352;5.006;2023-03-23T05:21:49;4.78;;;1.55;;
74227;SDS011;62587;52.352;5.006;2023-03-23T05:24:14;4.90;;;1.50;;
74227;SDS011;62587;52.352;5.006;2023-03-23T05:26:39;2.90;;;1.33;;
74227;SDS011;62587;52.352;5.006;2023-03-23T05:29:04;3.57;;;1.57;;
74227;SDS011;62587;52.352;5.006;2023-03-23T05:31:30;5.75;;;1.75;;
74227;SDS011;62587;52.352;5.006;2023-03-23T05:33:55;5.03;;;1.70;;
74227;SDS011;62587;52.352;5.006;2023-03-23T05:36:21;3.60;;;1.38;;
74227;SDS011;62587;52.352;5.006;2023-03-23T05:38:48;5.50;;;1.90;;
74227;SDS011;62587;52.352;5.006;2023-03-23T05:41:15;3.90;;;1.50;;
74227;SDS011;62587;52.352;5.006;2023-03-23T05:43:41;4.07;;;1.87;;
74227;SDS011;62587;52.352;5.006;2023-03-23T05:46:06;4.40;;;1.65;;
74227;SDS011;62587;52.352;5.006;2023-03-23T05:48:32;4.20;;;1.45;;
74227;SDS011;62587;52.352;5.006;2023-03-23T05:50:58;2.88;;;1.40;;
74227;SDS011;62587;52.352;5.006;2023-03-23T05:53:24;3.67;;;1.58;;
74227;SDS011;62587;52.352;5.006;2023-03-23T05:55:50;4.15;;;1.45;;
74227;SDS011;62587;52.352;5.006;2023-03-23T05:58:16;4.35;;;1.50;;
74227;SDS011;62587;52.352;5.006;2023-03-23T06:00:42;5.38;;;1.40;;
74227;SDS011;62587;52.352;5.006;2023-03-23T06:03:07;4.07;;;1.38;;
74227;SDS011;62587;52.352;5.006;2023-03-23T06:05:33;5.82;;;1.60;;
74227;SDS011;62587;52.352;5.006;2023-03-23T06:07:58;6.78;;;2.17;;
74227;SDS011;62587;52.352;5.006;2023-03-23T06:10:24;5.35;;;1.60;;
74227;SDS011;62587;52.352;5.006;2023-03-23T06:12:51;5.82;;;1.90;;
74227;SDS011;62587;52.352;5.006;2023-03-23T06:15:17;5.47;;;1.70;;
74227;SDS011;62587;52.352;5.006;2023-03-23T06:17:43;4.78;;;1.67;;
74227;SDS011;62587;52.352;5.006;2023-03-23T06:20:09;6.75;;;1.88;;
74227;SDS011;62587;52.352;5.006;2023-03-23T06:22:38;6.90;;;2.17;;
74227;SDS011;62587;52.352;5.006;2023-03-23T06:25:08;5.93;;;1.40;;
74227;SDS011;62587;52.352;5.006;2023-03-23T06:27:36;4.18;;;1.42;;
74227;SDS011;62587;52.352;5.006;2023-03-23T06:30:02;7.55;;;2.63;;
74227;SDS011;62587;52.352;5.006;2023-03-23T06:32:29;7.72;;;2.47;;
74227;SDS011;62587;52.352;5.006;2023-03-23T06:34:56;5.88;;;2.00;;
74227;SDS011;62587;52.352;5.006;2023-03-23T06:37:22;7.70;;;2.10;;
74227;SDS011;62587;52.352;5.006;2023-03-23T06:39:48;7.45;;;1.92;;
74227;SDS011;62587;52.352;5.006;2023-03-23T06:42:14;5.38;;;1.58;;
74227;SDS011;62587;52.352;5.006;2023-03-23T06:44:39;8.20;;;1.92;;
74227;SDS011;62587;52.352;5.006;2023-03-23T06:47:04;5.93;;;1.50;;
74227;SDS011;62587;52.352;5.006;2023-03-23T06:49:30;4.35;;;1.60;;
74227;SDS011;62587;52.352;5.006;2023-03-23T06:51:56;5.43;;;2.22;;
74227;SDS011;62587;52.352;5.006;2023-03-23T06:54:22;5.78;;;1.90;;
74227;SDS011;62587;52.352;5.006;2023-03-23T06:56:48;6.50;;;1.95;;
74227;SDS011;62587;52.352;5.006;2023-03-23T06:59:13;5.43;;;1.92;;
74227;SDS011;62587;52.352;5.006;2023-03-23T07:01:39;8.65;;;1.95;;
74227;SDS011;62587;52.352;5.006;2023-03-23T07:04:04;6.05;;;2.15;;
74227;SDS011;62587;52.352;5.006;2023-03-23T07:06:30;7.38;;;2.30;;
74227;SDS011;62587;52.352;5.006;2023-03-23T07:08:56;7.45;;;1.90;;
74227;SDS011;62587;52.352;5.006;2023-03-23T07:11:21;7.47;;;2.10;;
74227;SDS011;62587;52.352;5.006;2023-03-23T07:13:47;8.38;;;1.80;;
74227;SDS011;62587;52.352;5.006;2023-03-23T07:16:12;6.07;;;1.67;;
74227;SDS011;62587;52.352;5.006;2023-03-23T07:18:37;9.60;;;2.70;;
74227;SDS011;62587;52.352;5.006;2023-03-23T07:21:03;7.63;;;2.10;;
74227;SDS011;62587;52.352;5.006;2023-03-23T07:23:29;7.78;;;2.13;;
74227;SDS011;62587;52.352;5.006;2023-03-23T07:25:55;9.02;;;2.58;;
74227;SDS011;62587;52.352;5.006;2023-03-23T07:28:21;5.15;;;1.80;;
74227;SDS011;62587;52.352;5.006;2023-03-23T07:30:47;8.27;;;2.22;;
74227;SDS011;62587;52.352;5.006;2023-03-23T07:33:13;8.95;;;2.38;;
74227;SDS011;62587;52.352;5.006;2023-03-23T07:35:38;6.37;;;1.90;;
74227;SDS011;62587;52.352;5.006;2023-03-23T07:38:04;7.03;;;1.90;;
74227;SDS011;62587;52.352;5.006;2023-03-23T07:40:32;8.82;;;2.10;;
74227;SDS011;62587;52.352;5.006;2023-03-23T07:43:01;4.85;;;1.88;;
74227;SDS011;62587;52.352;5.006;2023-03-23T07:45:28;6.63;;;2.20;;
74227;SDS011;62587;52.352;5.006;2023-03-23T07:47:54;6.20;;;1.92;;
74227;SDS011;62587;52.352;5.006;2023-03-23T07:50:20;7.30;;;1.85;;
74227;SDS011;62587;52.352;5.006;2023-03-23T07:52:55;6.00;;;1.77;;
74227;SDS011;62587;52.352;5.006;2023-03-23T07:55:22;6.70;;;1.70;;
74227;SDS011;62587;52.352;5.006;2023-03-23T07:57:49;6.00;;;1.77;;
74227;SDS011;62587;52.352;5.006;2023-03-23T08:00:16;6.80;;;2.10;;
74227;SDS011;62587;52.352;5.006;2023-03-23T08:02:48;9.85;;;1.77;;
74227;SDS011;62587;52.352;5.006;2023-03-23T08:05:18;7.95;;;2.55;;
74227;SDS011;62587;52.352;5.006;2023-03-23T08:07:45;4.93;;;2.00;;
74227;SDS011;62587;52.352;5.006;2023-03-23T08:10:12;7.05;;;2.17;;
74227;SDS011;62587;52.352;5.006;2023-03-23T08:12:39;7.32;;;1.98;;
74227;SDS011;62587;52.352;5.006;2023-03-23T08:15:06;5.97;;;1.88;;
74227;SDS011;62587;52.352;5.006;2023-03-23T08:17:33;6.65;;;2.05;;
74227;SDS011;62587;52.352;5.006;2023-03-23T08:19:59;7.78;;;2.67;;
74227;SDS011;62587;52.352;5.006;2023-03-23T08:22:25;7.55;;;1.85;;
74227;SDS011;62587;52.352;5.006;2023-03-23T08:24:51;6.15;;;1.80;;
74227;SDS011;62587;52.352;5.006;2023-03-23T08:27:16;5.18;;;1.45;;
74227;SDS011;62587;52.352;5.006;2023-03-23T08:29:44;6.07;;;1.90;;
74227;SDS011;62587;52.352;5.006;2023-03-23T08:32:11;7.10;;;1.73;;
74227;SDS011;62587;52.352;5.006;2023-03-23T08:34:36;8.07;;;2.05;;
74227;SDS011;62587;52.352;5.006;2023-03-23T08:37:02;10.27;;;2.10;;
74227;SDS011;62587;52.352;5.006;2023-03-23T08:39:28;5.75;;;1.95;;
74227;SDS011;62587;52.352;5.006;2023-03-23T08:41:55;7.32;;;2.15;;
74227;SDS011;62587;52.352;5.006;2023-03-23T08:44:20;6.03;;;1.70;;
74227;SDS011;62587;52.352;5.006;2023-03-23T08:46:46;7.22;;;1.92;;
74227;SDS011;62587;52.352;5.006;2023-03-23T08:49:11;4.15;;;1.17;;
74227;SDS011;62587;52.352;5.006;2023-03-23T08:51:36;5.07;;;1.90;;
74227;SDS011;62587;52.352;5.006;2023-03-23T08:54:02;6.25;;;2.33;;
74227;SDS011;62587;52.352;5.006;2023-03-23T08:56:27;6.55;;;1.77;;
74227;SDS011;62587;52.352;5.006;2023-03-23T08:58:53;8.20;;;2.03;;
74227;SDS011;62587;52.352;5.006;2023-03-23T09:01:18;4.75;;;1.20;;
74227;SDS011;62587;52.352;5.006;2023-03-23T09:03:44;6.80;;;1.95;;
74227;SDS011;62587;52.352;5.006;2023-03-23T09:06:09;5.00;;;1.45;;
74227;SDS011;62587;52.352;5.006;2023-03-23T09:08:37;5.38;;;1.40;;
74227;SDS011;62587;52.352;5.006;2023-03-23T09:11:03;6.50;;;1.70;;
74227;SDS011;62587;52.352;5.006;2023-03-23T09:13:30;7.28;;;1.65;;
74227;SDS011;62587;52.352;5.006;2023-03-23T09:15:56;7.30;;;1.55;;
74227;SDS011;62587;52.352;5.006;2023-03-23T09:18:22;7.97;;;1.95;;
74227;SDS011;62587;52.352;5.006;2023-03-23T09:20:51;8.30;;;1.40;;
74227;SDS011;62587;52.352;5.006;2023-03-23T09:23:17;5.68;;;1.50;;
74227;SDS011;62587;52.352;5.006;2023-03-23T09:25:43;5.57;;;1.65;;
74227;SDS011;62587;52.352;5.006;2023-03-23T09:28:09;5.85;;;1.75;;
74227;SDS011;62587;52.352;5.006;2023-03-23T09:30:35;5.18;;;1.70;;
74227;SDS011;62587;52.352;5.006;2023-03-23T09:33:03;6.47;;;1.52;;
74227;SDS011;62587;52.352;5.006;2023-03-23T09:35:31;5.72;;;1.67;;
74227;SDS011;62587;52.352;5.006;2023-03-23T09:37:59;10.10;;;2.00;;
74227;SDS011;62587;52.352;5.006;2023-03-23T09:40:45;6.45;;;1.65;;
74227;SDS011;62587;52.352;5.006;2023-03-23T09:46:04;5.70;;;1.55;;
74227;SDS011;62587;52.352;5.006;2023-03-23T09:48:54;4.93;;;1.35;;
74227;SDS011;62587;52.352;5.006;2023-03-23T09:51:28;6.78;;;1.73;;
74227;SDS011;62587;52.352;5.006;2023-03-23T09:54:05;5.05;;;1.65;;
74227;SDS011;62587;52.352;5.006;2023-03-23T09:56:35;8.05;;;1.70;;
74227;SDS011;62587;52.352;5.006;2023-03-23T09:59:49;6.40;;;1.50;;
74227;SDS011;62587;52.352;5.006;2023-03-23T10:04:53;3.25;;;1.27;;
74227;SDS011;62587;52.352;5.006;2023-03-23T10:07:22;5.38;;;1.38;;
74227;SDS011;62587;52.352;5.006;2023-03-23T10:09:54;3.85;;;1.60;;
74227;SDS011;62587;52.352;5.006;2023-03-23T10:12:27;4.55;;;1.33;;
74227;SDS011;62587;52.352;5.006;2023-03-23T10:20:35;4.93;;;1.50;;
74227;SDS011;62587;52.352;5.006;2023-03-23T10:25:46;5.60;;;2.08;;
74227;SDS011;62587;52.352;5.006;2023-03-23T10:28:18;4.50;;;1.55;;
74227;SDS011;62587;52.352;5.006;2023-03-23T10:41:37;4.53;;;1.48;;
74227;SDS011;62587;52.352;5.006;2023-03-23T10:44:16;3.47;;;1.13;;
74227;SDS011;62587;52.352;5.006;2023-03-23T10:46:45;4.90;;;1.70;;
74227;SDS011;62587;52.352;5.006;2023-03-23T10:49:29;3.58;;;1.48;;
74227;SDS011;62587;52.352;5.006;2023-03-23T10:52:02;4.53;;;1.48;;
74227;SDS011;62587;52.352;5.006;2023-03-23T10:54:37;3.75;;;1.30;;
74227;SDS011;62587;52.352;5.006;2023-03-23T10:57:45;5.22;;;1.88;;
74227;SDS011;62587;52.352;5.006;2023-03-23T11:00:06;3.47;;;1.27;;
74227;SDS011;62587;52.352;5.006;2023-03-23T11:02:41;6.43;;;1.65;;
74227;SDS011;62587;52.352;5.006;2023-03-23T11:05:15;4.15;;;1.30;;
74227;SDS011;62587;52.352;5.006;2023-03-23T11:07:50;4.25;;;1.52;;
74227;SDS011;62587;52.352;5.006;2023-03-23T11:10:28;2.88;;;1.38;;
74227;SDS011;62587;52.352;5.006;2023-03-23T11:13:01;5.57;;;1.40;;
74227;SDS011;62587;52.352;5.006;2023-03-23T11:15:31;5.07;;;1.50;;
74227;SDS011;62587;52.352;5.006;2023-03-23T11:18:00;7.07;;;1.30;;
74227;SDS011;62587;52.352;5.006;2023-03-23T11:20:28;4.40;;;1.35;;
74227;SDS011;62587;52.352;5.006;2023-03-23T11:22:58;4.68;;;1.13;;
74227;SDS011;62587;52.352;5.006;2023-03-23T11:25:24;3.88;;;1.15;;
74227;SDS011;62587;52.352;5.006;2023-03-23T11:27:51;3.35;;;1.40;;
74227;SDS011;62587;52.352;5.006;2023-03-23T11:30:21;4.15;;;0.95;;
74227;SDS011;62587;52.352;5.006;2023-03-23T11:32:50;5.25;;;1.23;;
74227;SDS011;62587;52.352;5.006;2023-03-23T11:35:19;4.40;;;1.35;;
74227;SDS011;62587;52.352;5.006;2023-03-23T11:37:49;4.38;;;1.55;;
74227;SDS011;62587;52.352;5.006;2023-03-23T11:40:21;4.35;;;1.20;;
74227;SDS011;62587;52.352;5.006;2023-03-23T11:42:56;3.50;;;1.20;;
74227;SDS011;62587;52.352;5.006;2023-03-23T11:54:02;3.53;;;1.20;;
74227;SDS011;62587;52.352;5.006;2023-03-23T11:56:37;5.88;;;1.70;;
74227;SDS011;62587;52.352;5.006;2023-03-23T12:01:51;4.60;;;1.25;;
74227;SDS011;62587;52.352;5.006;2023-03-23T12:13:02;4.05;;;1.30;;
74227;SDS011;62587;52.352;5.006;2023-03-23T12:15:49;3.85;;;1.15;;
74227;SDS011;62587;52.352;5.006;2023-03-23T12:21:37;4.35;;;1.38;;
74227;SDS011;62587;52.352;5.006;2023-03-23T12:32:19;4.20;;;1.15;;
74227;SDS011;62587;52.352;5.006;2023-03-23T12:34:51;5.85;;;1.23;;
74227;SDS011;62587;52.352;5.006;2023-03-23T12:37:41;3.95;;;1.40;;
74227;SDS011;62587;52.352;5.006;2023-03-23T12:51:57;3.40;;;1.05;;
74227;SDS011;62587;52.352;5.006;2023-03-23T12:57:44;4.65;;;1.15;;
74227;SDS011;62587;52.352;5.006;2023-03-23T13:00:19;2.85;;;1.23;;
74227;SDS011;62587;52.352;5.006;2023-03-23T13:07:53;4.07;;;1.83;;
74227;SDS011;62587;52.352;5.006;2023-03-23T13:10:27;4.45;;;1.10;;
74227;SDS011;62587;52.352;5.006;2023-03-23T13:12:57;3.15;;;0.90;;
74227;SDS011;62587;52.352;5.006;2023-03-23T13:18:35;3.70;;;1.30;;
74227;SDS011;62587;52.352;5.006;2023-03-23T13:23:53;2.78;;;1.05;;
74227;SDS011;62587;52.352;5.006;2023-03-23T13:26:23;3.78;;;1.25;;
74227;SDS011;62587;52.352;5.006;2023-03-23T13:31:20;3.40;;;1.15;;
74227;SDS011;62587;52.352;5.006;2023-03-23T13:33:52;4.35;;;1.25;;
74227;SDS011;62587;52.352;5.006;2023-03-23T13:39:17;3.42;;;1.13;;
74227;SDS011;62587;52.352;5.006;2023-03-23T13:49:49;3.55;;;1.02;;
74227;SDS011;62587;52.352;5.006;2023-03-23T14:08:19;5.00;;;1.50;;
74227;SDS011;62587;52.352;5.006;2023-03-23T14:10:54;3.67;;;1.70;;
74227;SDS011;62587;52.352;5.006;2023-03-23T14:13:42;4.45;;;1.35;;
74227;SDS011;62587;52.352;5.006;2023-03-23T14:16:24;4.80;;;1.67;;
74227;SDS011;62587;52.352;5.006;2023-03-23T14:19:00;4.47;;;1.33;;
74227;SDS011;62587;52.352;5.006;2023-03-23T14:21:35;4.07;;;1.70;;
74227;SDS011;62587;52.352;5.006;2023-03-23T14:24:05;4.97;;;2.08;;
74227;SDS011;62587;52.352;5.006;2023-03-23T14:26:35;5.03;;;1.95;;
74227;SDS011;62587;52.352;5.006;2023-03-23T14:29:01;4.70;;;1.80;;
74227;SDS011;62587;52.352;5.006;2023-03-23T14:31:28;4.93;;;1.70;;
74227;SDS011;62587;52.352;5.006;2023-03-23T14:33:55;8.70;;;3.72;;
74227;SDS011;62587;52.352;5.006;2023-03-23T14:36:22;3.92;;;1.90;;
74227;SDS011;62587;52.352;5.006;2023-03-23T14:44:10;6.60;;;2.53;;
74227;SDS011;62587;52.352;5.006;2023-03-23T14:46:40;5.45;;;2.65;;
74227;SDS011;62587;52.352;5.006;2023-03-23T14:49:10;4.25;;;2.58;;
74227;SDS011;62587;52.352;5.006;2023-03-23T14:51:46;6.63;;;2.83;;
74227;SDS011;62587;52.352;5.006;2023-03-23T14:54:20;4.55;;;3.00;;
74227;SDS011;62587;52.352;5.006;2023-03-23T14:57:02;5.20;;;2.60;;
74227;SDS011;62587;52.352;5.006;2023-03-23T14:59:34;6.32;;;2.42;;
74227;SDS011;62587;52.352;5.006;2023-03-23T15:01:59;5.47;;;2.97;;
74227;SDS011;62587;52.352;5.006;2023-03-23T15:04:26;5.88;;;2.85;;
74227;SDS011;62587;52.352;5.006;2023-03-23T15:06:56;6.65;;;3.25;;
74227;SDS011;62587;52.352;5.006;2023-03-23T15:09:28;6.10;;;3.08;;
74227;SDS011;62587;52.352;5.006;2023-03-23T15:14:27;5.30;;;3.20;;
74227;SDS011;62587;52.352;5.006;2023-03-23T15:16:54;6.47;;;3.05;;
74227;SDS011;62587;52.352;5.006;2023-03-23T15:19:23;5.60;;;3.13;;
74227;SDS011;62587;52.352;5.006;2023-03-23T15:21:53;8.13;;;3.85;;
74227;SDS011;62587;52.352;5.006;2023-03-23T15:24:37;7.03;;;3.47;;
74227;SDS011;62587;52.352;5.006;2023-03-23T15:29:52;6.40;;;3.38;;
74227;SDS011;62587;52.352;5.006;2023-03-23T15:32:23;7.22;;;3.20;;
74227;SDS011;62587;52.352;5.006;2023-03-23T15:34:51;6.07;;;3.28;;
74227;SDS011;62587;52.352;5.006;2023-03-23T15:37:29;7.38;;;3.58;;
74227;SDS011;62587;52.352;5.006;2023-03-23T15:39:56;7.45;;;3.10;;
74227;SDS011;62587;52.352;5.006;2023-03-23T15:42:31;5.25;;;2.92;;
74227;SDS011;62587;52.352;5.006;2023-03-23T15:45:15;5.45;;;2.80;;
74227;SDS011;62587;52.352;5.006;2023-03-23T15:47:47;4.95;;;3.10;;
74227;SDS011;62587;52.352;5.006;2023-03-23T15:50:18;6.15;;;3.38;;
74227;SDS011;62587;52.352;5.006;2023-03-23T15:52:52;6.88;;;3.42;;
74227;SDS011;62587;52.352;5.006;2023-03-23T15:55:23;6.43;;;3.42;;
74227;SDS011;62587;52.352;5.006;2023-03-23T15:57:49;8.02;;;4.28;;
74227;SDS011;62587;52.352;5.006;2023-03-23T16:00:15;6.60;;;3.47;;
74227;SDS011;62587;52.352;5.006;2023-03-23T16:02:42;8.07;;;3.72;;
74227;SDS011;62587;52.352;5.006;2023-03-23T16:05:11;7.10;;;3.80;;
74227;SDS011;62587;52.352;5.006;2023-03-23T16:07:37;7.57;;;4.20;;
74227;SDS011;62587;52.352;5.006;2023-03-23T16:10:03;7.65;;;3.20;;
74227;SDS011;62587;52.352;5.006;2023-03-23T16:12:29;7.28;;;3.45;;
74227;SDS011;62587;52.352;5.006;2023-03-23T16:14:55;7.43;;;3.60;;
74227;SDS011;62587;52.352;5.006;2023-03-23T16:17:20;4.57;;;2.93;;
74227;SDS011;62587;52.352;5.006;2023-03-23T16:19:45;6.82;;;3.70;;
74227;SDS011;62587;52.352;5.006;2023-03-23T16:22:11;6.50;;;3.13;;
74227;SDS011;62587;52.352;5.006;2023-03-23T16:24:36;7.22;;;3.45;;
74227;SDS011;62587;52.352;5.006;2023-03-23T16:27:02;7.25;;;3.58;;
74227;SDS011;62587;52.352;5.006;2023-03-23T16:29:28;7.18;;;4.07;;
74227;SDS011;62587;52.352;5.006;2023-03-23T16:31:53;6.10;;;3.38;;
74227;SDS011;62587;52.352;5.006;2023-03-23T16:34:19;6.95;;;3.67;;
74227;SDS011;62587;52.352;5.006;2023-03-23T16:36:44;6.57;;;3.58;;
74227;SDS011;62587;52.352;5.006;2023-03-23T16:39:12;8.70;;;3.10;;
74227;SDS011;62587;52.352;5.006;2023-03-23T16:41:39;7.15;;;3.80;;
74227;SDS011;62587;52.352;5.006;2023-03-23T16:44:05;7.47;;;3.45;;
74227;SDS011;62587;52.352;5.006;2023-03-23T16:46:30;6.97;;;3.58;;
74227;SDS011;62587;52.352;5.006;2023-03-23T16:48:56;6.00;;;3.45;;
74227;SDS011;62587;52.352;5.006;2023-03-23T16:51:21;7.40;;;3.40;;
74227;SDS011;62587;52.352;5.006;2023-03-23T16:53:47;6.85;;;3.58;;
74227;SDS011;62587;52.352;5.006;2023-03-23T16:56:12;6.00;;;3.00;;
74227;SDS011;62587;52.352;5.006;2023-03-23T16:58:38;6.38;;;3.60;;
74227;SDS011;62587;52.352;5.006;2023-03-23T17:01:05;6.15;;;3.17;;
74227;SDS011;62587;52.352;5.006;2023-03-23T17:03:31;5.22;;;3.00;;
74227;SDS011;62587;52.352;5.006;2023-03-23T17:05:56;6.55;;;3.25;;
74227;SDS011;62587;52.352;5.006;2023-03-23T17:08:24;6.25;;;3.30;;
74227;SDS011;62587;52.352;5.006;2023-03-23T17:10:49;7.20;;;3.70;;
74227;SDS011;62587;52.352;5.006;2023-03-23T17:13:15;6.03;;;3.38;;
74227;SDS011;62587;52.352;5.006;2023-03-23T17:15:42;5.20;;;3.20;;
74227;SDS011;62587;52.352;5.006;2023-03-23T17:18:08;5.55;;;2.88;;
74227;SDS011;62587;52.352;5.006;2023-03-23T17:20:34;7.00;;;2.92;;
74227;SDS011;62587;52.352;5.006;2023-03-23T17:23:00;6.57;;;3.15;;
74227;SDS011;62587;52.352;5.006;2023-03-23T17:25:25;5.75;;;3.00;;
74227;SDS011;62587;52.352;5.006;2023-03-23T17:27:51;6.10;;;2.70;;
74227;SDS011;62587;52.352;5.006;2023-03-23T17:30:17;4.47;;;2.60;;
74227;SDS011;62587;52.352;5.006;2023-03-23T17:32:43;6.88;;;2.75;;